Time;durP1;ratioP1;P1;durP2;ratioP2;P2;SDS_P1;SDS_P2;PMS_P1;PMS_P2;Temp;Humidity;BMP_temperature;BMP_pressure;BME280_temperature;BME280_humidity;BME280_pressure;Samples;Min_cycle;Max_cycle;Signal;HPM_P1;HPM_P2
2022/09/28 00:02:16;;;;;;;6.05;4.25;;;9.30;99.90;;;;;;2604408;54;20022;31
2022/09/28 00:04:52;;;;;;;14.05;9.40;;;9.30;99.90;;;;;;2607706;54;20888;31
2022/09/28 00:07:30;;;;;;;12.60;8.65;;;9.60;99.90;;;;;;2605754;54;19941;31
2022/09/28 00:10:03;;;;;;;11.52;6.38;;;9.20;99.90;;;;;;2606806;46;20038;31
2022/09/28 00:12:38;;;;;;;8.65;4.93;;;9.20;99.90;;;;;;2603496;54;20918;31
2022/09/28 00:15:11;;;;;;;6.65;4.20;;;9.20;99.90;;;;;;2606045;54;20022;31
2022/09/28 00:17:43;;;;;;;9.65;5.28;;;9.10;99.90;;;;;;2608611;54;22092;-76
2022/09/28 00:20:21;;;;;;;6.40;4.30;;;9.10;99.90;;;;;;2604805;54;20018;31
2022/09/28 00:22:58;;;;;;;6.53;3.90;;;9.10;99.90;;;;;;2606780;54;20030;31
2022/09/28 00:25:31;;;;;;;6.97;4.70;;;9.10;99.90;;;;;;2625907;46;20948;31
2022/09/28 00:28:04;;;;;;;6.03;3.83;;;9.00;99.90;;;;;;2610248;54;20271;31
2022/09/28 00:30:36;;;;;;;5.68;3.60;;;9.00;99.90;;;;;;2605933;54;20031;31
2022/09/28 00:33:08;;;;;;;6.55;3.75;;;9.00;99.90;;;;;;2608321;46;19935;31
2022/09/28 00:35:44;;;;;;;5.03;3.13;;;9.00;99.90;;;;;;2603649;54;20034;31
2022/09/28 00:38:17;;;;;;;7.30;3.50;;;9.00;99.90;;;;;;2605812;54;20054;31
2022/09/28 00:40:50;;;;;;;5.20;3.30;;;9.00;99.90;;;;;;2605748;54;20085;31
2022/09/28 00:43:23;;;;;;;6.07;3.22;;;8.90;99.90;;;;;;2605198;54;20779;31
2022/09/28 00:45:58;;;;;;;11.02;3.97;;;8.90;99.90;;;;;;2603815;54;20033;-80
2022/09/28 00:48:34;;;;;;;4.38;3.03;;;8.80;99.90;;;;;;2603508;54;20057;31
2022/09/28 00:51:12;;;;;;;5.20;3.50;;;8.80;99.90;;;;;;2605729;54;20087;31
2022/09/28 00:53:45;;;;;;;6.38;3.67;;;8.80;99.90;;;;;;2605325;54;20089;31
2022/09/28 00:56:20;;;;;;;5.63;4.40;;;8.70;99.90;;;;;;2603669;54;20046;31
2022/09/28 00:58:54;;;;;;;5.45;3.88;;;8.70;99.90;;;;;;2606801;54;20763;31
2022/09/28 01:01:29;;;;;;;7.30;3.17;;;8.60;99.90;;;;;;2604067;54;20931;-78
2022/09/28 01:04:01;;;;;;;4.18;2.95;;;8.60;99.90;;;;;;2624665;46;20023;31
2022/09/28 01:06:38;;;;;;;7.30;3.05;;;8.60;99.90;;;;;;2603418;54;20027;31
2022/09/28 01:09:14;;;;;;;5.57;3.15;;;8.60;99.90;;;;;;2605024;54;20101;31
2022/09/28 01:11:50;;;;;;;4.28;3.00;;;8.50;99.90;;;;;;2605045;46;20030;31
2022/09/28 01:14:24;;;;;;;4.68;2.78;;;8.50;99.90;;;;;;2602976;54;20073;31
2022/09/28 01:17:02;;;;;;;5.07;3.08;;;8.50;99.90;;;;;;2630733;39;21000;31
2022/09/28 01:20:04;;;;;;;4.07;2.72;;;8.50;99.90;;;;;;2611981;39;22471;31
2022/09/28 01:23:02;;;;;;;4.22;3.28;;;8.40;99.90;;;;;;2603480;54;20029;31
2022/09/28 01:25:34;;;;;;;5.75;3.08;;;8.40;99.90;;;;;;2605355;54;20050;31
2022/09/28 01:28:09;;;;;;;5.30;3.15;;;8.40;99.90;;;;;;2605427;54;20896;31
2022/09/28 01:30:46;;;;;;;6.25;3.83;;;8.40;99.90;;;;;;2603598;54;20156;31
2022/09/28 01:33:21;;;;;;;7.45;4.30;;;8.30;99.90;;;;;;2605801;54;20054;-81
2022/09/28 01:35:56;;;;;;;5.90;4.80;;;8.30;99.90;;;;;;2605773;54;20033;-80
2022/09/28 01:38:31;;;;;;;4.95;3.67;;;8.30;99.90;;;;;;2603317;54;20951;31
2022/09/28 01:41:07;;;;;;;9.85;4.95;;;8.30;99.90;;;;;;2622005;46;20803;31
2022/09/28 01:43:42;;;;;;;10.25;6.05;;;8.30;99.90;;;;;;2604924;54;20053;31
2022/09/28 01:46:14;;;;;;;5.22;4.18;;;8.20;99.90;;;;;;2604990;54;20883;31
2022/09/28 01:48:49;;;;;;;6.03;4.40;;;8.20;99.90;;;;;;2603367;54;20022;31
2022/09/28 01:51:24;;;;;;;;;;;8.20;99.90;;;;;;2603571;54;20877;31
2022/09/28 01:53:56;;;;;;;6.78;4.88;;;8.20;99.90;;;;;;2605382;54;19941;31
2022/09/28 01:56:34;;;;;;;5.85;3.60;;;8.10;99.90;;;;;;2603368;54;20824;31
2022/09/28 01:59:10;;;;;;;6.87;4.13;;;8.10;99.90;;;;;;2606128;46;20888;31
2022/09/28 02:01:44;;;;;;;5.50;3.72;;;8.10;99.90;;;;;;2605215;54;20960;31
2022/09/28 02:04:21;;;;;;;5.57;4.68;;;8.10;99.90;;;;;;2603221;54;20908;31
2022/09/28 02:06:57;;;;;;;6.83;4.43;;;8.10;99.90;;;;;;2605299;54;20113;31
2022/09/28 02:09:33;;;;;;;5.82;3.30;;;8.10;99.90;;;;;;2701939;39;20439;31
2022/09/28 02:12:07;;;;;;;4.13;3.63;;;8.10;99.90;;;;;;2603491;54;20033;31
2022/09/28 02:14:46;;;;;;;5.20;3.65;;;8.00;99.90;;;;;;2603369;54;20035;31
2022/09/28 02:17:19;;;;;;;8.20;3.20;;;8.00;99.90;;;;;;2603441;54;20053;31
2022/09/28 02:19:52;;;;;;;5.25;3.83;;;8.00;99.90;;;;;;2603079;54;20029;31
2022/09/28 02:22:26;;;;;;;6.85;4.18;;;7.90;99.90;;;;;;2607616;39;22122;31
2022/09/28 02:25:00;;;;;;;4.72;3.17;;;7.90;99.90;;;;;;2603535;54;20108;31
2022/09/28 02:27:37;;;;;;;6.00;3.60;;;7.90;99.90;;;;;;2621382;46;20053;31
2022/09/28 02:30:14;;;;;;;7.05;3.30;;;7.90;99.90;;;;;;2603244;54;21243;31
2022/09/28 02:32:49;;;;;;;5.20;3.75;;;7.80;99.90;;;;;;2605065;54;20199;31
2022/09/28 02:35:22;;;;;;;5.57;3.60;;;7.80;99.90;;;;;;2603358;54;20914;31
2022/09/28 02:37:55;;;;;;;8.70;3.60;;;7.80;99.90;;;;;;2604583;54;20046;31
2022/09/28 02:40:32;;;;;;;7.47;4.45;;;7.80;99.90;;;;;;2603357;54;21640;31
2022/09/28 02:43:13;;;;;;;5.93;3.78;;;7.70;99.90;;;;;;2605087;54;21612;31
2022/09/28 02:45:54;;;;;;;7.80;3.95;;;7.70;99.90;;;;;;2603170;54;20022;31
2022/09/28 02:48:42;;;;;;;5.87;3.70;;;7.70;99.90;;;;;;2621399;46;22339;31
2022/09/28 02:51:26;;;;;;;6.22;4.63;;;7.70;99.90;;;;;;2623932;46;20790;31
2022/09/28 02:54:21;;;;;;;7.35;4.68;;;7.70;99.90;;;;;;2603264;54;20104;31
2022/09/28 02:57:04;;;;;;;9.43;5.50;;;7.60;99.90;;;;;;2603086;54;20026;31
2022/09/28 02:59:45;;;;;;;6.10;5.00;;;7.60;99.90;;;;;;2701325;39;20445;31
2022/09/28 03:02:25;;;;;;;9.07;4.43;;;7.60;99.90;;;;;;2603383;54;20973;31
2022/09/28 03:05:10;;;;;;;7.65;5.70;;;7.60;99.90;;;;;;2602963;54;20806;31
2022/09/28 03:07:48;;;;;;;7.47;5.85;;;7.60;99.90;;;;;;2602953;54;20893;31
2022/09/28 03:10:23;;;;;;;6.83;5.20;;;7.60;99.90;;;;;;2603161;54;20917;31
2022/09/28 03:12:57;;;;;;;7.60;5.15;;;7.60;99.90;;;;;;2632638;39;21858;31
2022/09/28 03:15:32;;;;;;;7.72;5.10;;;7.60;99.90;;;;;;2602876;54;20070;31
2022/09/28 03:18:10;;;;;;;6.80;5.35;;;7.60;99.90;;;;;;2604622;46;20046;31
2022/09/28 03:20:42;;;;;;;9.60;6.90;;;7.60;99.90;;;;;;2621765;46;20030;31
2022/09/28 03:23:16;;;;;;;8.20;6.18;;;7.60;99.90;;;;;;2617373;39;21042;31
2022/09/28 03:25:59;;;;;;;8.32;5.88;;;7.60;99.90;;;;;;2621478;46;20049;31
2022/09/28 03:28:35;;;;;;;7.85;5.25;;;7.60;99.90;;;;;;2602833;54;20085;31
2022/09/28 03:31:08;;;;;;;12.70;7.50;;;7.60;99.90;;;;;;2610630;39;22292;31
2022/09/28 03:33:42;;;;;;;8.10;6.63;;;7.60;99.90;;;;;;2621857;46;20034;31
2022/09/28 03:36:14;;;;;;;8.95;6.00;;;7.60;99.90;;;;;;2603111;54;20026;31
2022/09/28 03:38:49;;;;;;;8.95;6.55;;;7.60;99.90;;;;;;2602745;54;20935;31
2022/09/28 03:41:20;;;;;;;8.80;6.57;;;7.60;99.90;;;;;;2603204;54;20557;31
2022/09/28 03:43:54;;;;;;;8.63;6.90;;;7.60;99.90;;;;;;2621632;47;20910;31
2022/09/28 03:46:29;;;;;;;6.72;5.25;;;7.60;99.90;;;;;;2605209;54;20505;31
2022/09/28 03:49:11;;;;;;;6.80;4.90;;;7.60;99.90;;;;;;2603054;54;20049;31
2022/09/28 03:51:44;;;;;;;10.85;7.25;;;7.70;99.90;;;;;;2603093;54;20046;31
2022/09/28 03:54:18;;;;;;;8.10;5.75;;;7.60;99.90;;;;;;2603023;54;20055;31
2022/09/28 03:56:53;;;;;;;10.10;6.20;;;7.70;99.90;;;;;;2603083;54;20847;31
2022/09/28 03:59:27;;;;;;;7.00;5.20;;;7.70;99.90;;;;;;2605129;54;20019;31
2022/09/28 04:01:58;;;;;;;6.85;4.85;;;7.70;99.90;;;;;;2603255;54;20033;-78
2022/09/28 04:04:35;;;;;;;8.25;6.05;;;7.70;99.90;;;;;;2602946;54;20131;31
2022/09/28 04:07:08;;;;;;;6.45;4.50;;;7.80;99.90;;;;;;2602974;54;20112;31
2022/09/28 04:09:41;;;;;;;6.30;5.45;;;7.80;99.90;;;;;;2602852;54;20059;31
2022/09/28 04:12:14;;;;;;;8.50;6.75;;;7.80;99.90;;;;;;2602833;54;20030;31
2022/09/28 04:14:47;;;;;;;8.33;6.70;;;7.90;99.90;;;;;;2602580;54;20786;31
2022/09/28 04:17:21;;;;;;;9.75;6.15;;;7.90;99.90;;;;;;2602827;54;20132;31
2022/09/28 04:19:58;;;;;;;11.70;7.60;;;7.90;99.90;;;;;;2602769;54;20042;31
2022/09/28 04:22:41;;;;;;;11.43;7.60;;;7.90;99.90;;;;;;2604855;54;20026;31
2022/09/28 04:25:17;;;;;;;8.95;6.82;;;7.90;99.90;;;;;;2602645;54;20832;31
2022/09/28 04:30:34;;;;;;;9.95;7.97;;;7.90;99.90;;;;;;2604621;54;19961;31
2022/09/28 04:33:08;;;;;;;10.70;7.32;;;7.90;99.90;;;;;;2602686;54;20026;31
2022/09/28 04:35:44;;;;;;;10.35;7.20;;;7.90;99.90;;;;;;2602733;54;20821;31
2022/09/28 04:38:19;;;;;;;8.13;6.63;;;7.90;99.90;;;;;;2602835;54;20797;31
2022/09/28 04:41:13;;;;;;;9.93;7.27;;;7.90;99.90;;;;;;2602676;54;20030;31
2022/09/28 04:43:49;;;;;;;10.63;7.80;;;8.00;99.90;;;;;;2605568;47;20018;31
2022/09/28 04:46:23;;;;;;;10.10;7.27;;;7.90;99.90;;;;;;2604714;54;20336;31
2022/09/28 04:49:10;;;;;;;7.37;6.17;;;8.00;99.90;;;;;;2602188;54;20939;31
2022/09/28 04:52:00;;;;;;;8.83;6.77;;;8.00;99.90;;;;;;2603468;54;20058;31
2022/09/28 04:54:34;;;;;;;10.53;8.00;;;8.20;99.90;;;;;;2605702;54;21212;31
2022/09/28 04:57:09;;;;;;;9.23;7.23;;;8.00;99.90;;;;;;2611909;39;22582;31
2022/09/28 04:59:44;;;;;;;17.15;10.40;;;8.00;99.90;;;;;;2621882;46;21148;31
2022/09/28 05:02:20;;;;;;;9.02;6.38;;;8.00;99.90;;;;;;2603586;54;20019;31
2022/09/28 05:05:14;;;;;;;11.35;7.10;;;8.00;99.90;;;;;;2603485;54;20777;31
2022/09/28 05:08:08;;;;;;;12.00;8.02;;;8.00;99.90;;;;;;2603327;54;20041;31
2022/09/28 05:10:42;;;;;;;8.23;7.15;;;8.20;99.90;;;;;;2605575;54;20052;31
2022/09/28 05:13:17;;;;;;;10.20;8.27;;;8.10;99.90;;;;;;2602722;54;20848;31
2022/09/28 05:15:54;;;;;;;11.25;8.00;;;8.10;99.90;;;;;;2602670;54;20026;31
2022/09/28 05:18:34;;;;;;;11.43;8.70;;;8.20;99.90;;;;;;2603586;54;20891;31
2022/09/28 05:21:13;;;;;;;13.93;11.95;;;8.20;99.90;;;;;;2603447;54;20873;31
2022/09/28 05:23:51;;;;;;;22.08;18.17;;;8.20;99.90;;;;;;2603303;54;20045;31
2022/09/28 05:26:24;;;;;;;34.90;29.53;;;8.30;99.90;;;;;;2603363;54;20029;31
2022/09/28 05:29:00;;;;;;;19.80;17.70;;;8.30;99.90;;;;;;2602741;54;20034;31
2022/09/28 05:32:06;;;;;;;85.00;60.22;;;8.30;99.90;;;;;;2603640;54;20069;31
2022/09/28 05:35:05;;;;;;;83.55;58.80;;;8.30;99.90;;;;;;2603270;54;20938;31
2022/09/28 05:37:48;;;;;;;70.60;53.33;;;8.30;99.90;;;;;;2603538;54;20026;31
2022/09/28 05:40:24;;;;;;;22.83;18.10;;;8.40;99.90;;;;;;2603324;54;20039;31
2022/09/28 05:43:02;;;;;;;29.20;24.13;;;8.60;99.90;;;;;;2603287;54;20917;31
2022/09/28 05:45:39;;;;;;;41.03;31.60;;;8.90;99.90;;;;;;2621821;46;20045;31
2022/09/28 05:48:14;;;;;;;37.60;33.65;;;8.50;99.90;;;;;;2612833;46;20114;31
2022/09/28 05:50:53;;;;;;;172.43;98.97;;;8.50;99.90;;;;;;2603307;54;20026;31
2022/09/28 05:53:28;;;;;;;174.77;101.15;;;8.50;99.90;;;;;;2603377;54;20026;31
2022/09/28 05:56:09;;;;;;;74.65;55.10;;;8.50;99.90;;;;;;2603408;54;20914;31
2022/09/28 05:58:45;;;;;;;27.35;21.65;;;8.90;99.90;;;;;;2621905;46;20022;31
2022/09/28 06:01:25;;;;;;;23.40;12.87;;;8.60;99.90;;;;;;2701839;39;21321;31
2022/09/28 06:04:05;;;;;;;17.23;12.80;;;8.70;99.90;;;;;;2607672;46;20916;31
2022/09/28 06:06:40;;;;;;;14.40;12.15;;;8.70;99.90;;;;;;2603260;54;20064;31
2022/09/28 06:09:13;;;;;;;14.67;9.50;;;8.70;99.90;;;;;;2603379;54;20027;31
2022/09/28 06:12:00;;;;;;;14.37;10.77;;;8.80;99.90;;;;;;2603160;54;20026;31
2022/09/28 06:14:46;;;;;;;11.73;8.55;;;8.90;99.90;;;;;;2621719;46;20835;31
2022/09/28 06:17:23;;;;;;;13.30;9.20;;;9.00;99.90;;;;;;2603475;54;20085;31
2022/09/28 06:20:16;;;;;;;11.20;9.50;;;9.10;99.90;;;;;;2603392;54;20029;31
2022/09/28 06:23:03;;;;;;;12.98;9.30;;;9.40;99.90;;;;;;2621725;46;20026;31
2022/09/28 06:25:38;;;;;;;12.55;8.35;;;9.50;99.90;;;;;;2603214;54;20030;31
2022/09/28 06:28:14;;;;;;;11.05;9.82;;;9.70;99.90;;;;;;2603263;54;20023;31
2022/09/28 06:30:49;;;;;;;11.20;8.15;;;10.00;99.90;;;;;;2603161;54;20022;31
2022/09/28 06:33:25;;;;;;;10.40;8.48;;;10.30;99.90;;;;;;2603792;54;20989;-82
2022/09/28 06:35:58;;;;;;;10.02;8.30;;;10.80;99.90;;;;;;2603114;54;20855;31
2022/09/28 06:38:33;;;;;;;8.77;6.13;;;11.00;99.90;;;;;;2603083;54;20085;31
2022/09/28 06:41:07;;;;;;;7.50;4.97;;;11.30;99.90;;;;;;2603542;54;20965;31
2022/09/28 06:43:45;;;;;;;6.63;5.13;;;11.60;99.90;;;;;;2606482;54;20030;31
2022/09/28 06:46:19;;;;;;;5.32;4.82;;;12.20;99.90;;;;;;2605994;46;20132;31
2022/09/28 06:48:57;;;;;;;10.30;4.28;;;12.70;99.90;;;;;;2605201;54;20853;31
2022/09/28 06:51:53;;;;;;;7.32;4.93;;;13.30;99.90;;;;;;2603172;54;20022;31
2022/09/28 06:54:37;;;;;;;7.80;3.55;;;13.90;99.90;;;;;;2603361;54;20058;31
2022/09/28 06:57:28;;;;;;;8.17;3.83;;;14.50;99.90;;;;;;2621753;46;21116;31
2022/09/28 07:00:09;;;;;;;18.13;13.10;;;15.10;99.90;;;;;;2604014;46;20025;31
2022/09/28 07:02:47;;;;;;;7.55;3.90;;;15.60;99.90;;;;;;2604069;54;20026;-79
2022/09/28 07:05:40;;;;;;;;;;;16.10;99.90;;;;;;2603517;54;20029;31
2022/09/28 07:08:31;;;;;;;4.20;2.72;;;16.40;99.90;;;;;;2605373;54;20809;-80
2022/09/28 07:11:10;;;;;;;6.55;4.35;;;16.80;99.90;;;;;;2604893;54;20049;31
2022/09/28 07:13:52;;;;;;;4.07;3.53;;;17.20;99.90;;;;;;2606128;54;19937;31
2022/09/28 07:16:32;;;;;;;5.07;3.23;;;17.40;99.90;;;;;;2609565;54;20877;31
2022/09/28 07:19:27;;;;;;;5.15;2.45;;;17.60;99.90;;;;;;2607428;54;20926;31
2022/09/28 07:22:02;;;;;;;5.97;2.42;;;18.00;99.90;;;;;;2604375;54;20097;-76
2022/09/28 07:24:40;;;;;;;3.63;2.33;;;18.00;99.90;;;;;;2603301;54;20082;31
2022/09/28 07:27:41;;;;;;;3.10;2.20;;;18.30;99.90;;;;;;2603065;54;20227;31
2022/09/28 07:30:41;;;;;;;6.60;4.20;;;18.50;99.90;;;;;;2602956;54;20026;31
2022/09/28 07:33:24;;;;;;;8.50;4.80;;;18.60;99.90;;;;;;2603301;54;20026;31
2022/09/28 07:36:01;;;;;;;8.07;4.57;;;18.70;99.90;;;;;;2605290;54;20912;31
2022/09/28 07:38:37;;;;;;;5.20;2.08;;;19.00;99.90;;;;;;2605149;54;20030;31
2022/09/28 07:41:13;;;;;;;3.42;2.00;;;19.10;99.90;;;;;;2605644;54;20054;31
2022/09/28 07:43:54;;;;;;;3.65;2.00;;;19.20;99.90;;;;;;2602932;54;20022;31
2022/09/28 07:46:29;;;;;;;5.60;5.00;;;19.30;99.90;;;;;;2603015;54;20938;31
2022/09/28 07:49:15;;;;;;;2.90;2.20;;;19.30;99.90;;;;;;2604653;54;20906;31
2022/09/28 07:52:09;;;;;;;5.22;2.20;;;19.50;99.90;;;;;;2603271;54;20990;31
2022/09/28 07:55:17;;;;;;;3.70;1.85;;;19.50;99.90;;;;;;2605168;54;20120;31
2022/09/28 07:58:08;;;;;;;2.05;1.58;;;19.50;99.90;;;;;;2604156;54;20879;31
2022/09/28 08:01:10;;;;;;;4.72;3.45;;;19.50;99.90;;;;;;2615476;39;20690;31
2022/09/28 08:03:47;;;;;;;4.53;3.10;;;19.50;99.90;;;;;;2602874;54;20089;31
2022/09/28 08:06:23;;;;;;;2.55;1.70;;;19.60;99.90;;;;;;2602990;54;20019;31
2022/09/28 08:08:58;;;;;;;4.00;1.83;;;19.50;99.90;;;;;;2602797;54;20112;31
2022/09/28 08:11:53;;;;;;;2.17;1.67;;;19.60;99.90;;;;;;2603201;54;20299;31
2022/09/28 08:14:48;;;;;;;3.40;1.88;;;19.80;99.90;;;;;;2603283;54;20058;31
2022/09/28 08:17:42;;;;;;;1.95;1.70;;;19.50;99.90;;;;;;2603026;54;20840;31
2022/09/28 08:23:09;;;;;;;6.55;1.80;;;18.90;99.90;;;;;;2602606;54;20903;31
2022/09/28 08:25:48;;;;;;;2.17;1.45;;;18.80;99.90;;;;;;2603599;54;20859;31
2022/09/28 08:28:25;;;;;;;3.80;1.60;;;18.50;99.90;;;;;;2607082;54;20139;31
2022/09/28 08:31:06;;;;;;;2.80;1.90;;;18.30;99.90;;;;;;2603589;54;20031;31
2022/09/28 08:34:05;;;;;;;5.30;2.15;;;17.90;99.90;;;;;;2603640;54;21570;31
2022/09/28 08:37:11;;;;;;;1.80;1.60;;;17.80;99.90;;;;;;2603512;54;20952;31
2022/09/28 08:39:51;;;;;;;3.95;1.80;;;18.00;99.90;;;;;;2603838;54;20809;31
2022/09/28 08:43:06;;;;;;;4.20;1.77;;;18.30;99.90;;;;;;2603443;54;20112;31
2022/09/28 08:46:00;;;;;;;3.05;1.80;;;18.60;99.90;;;;;;2603697;54;20057;31
2022/09/28 08:48:53;;;;;;;6.90;3.00;;;18.40;99.90;;;;;;2603740;54;20034;31
2022/09/28 08:52:16;;;;;;;3.35;1.95;;;18.10;99.90;;;;;;2618400;46;20092;31
2022/09/28 08:55:13;;;;;;;3.40;1.80;;;18.20;99.90;;;;;;2603760;54;20033;31
2022/09/28 08:57:52;;;;;;;6.07;3.65;;;18.40;99.90;;;;;;2603569;54;20112;31
2022/09/28 09:00:34;;;;;;;5.10;1.58;;;18.70;99.90;;;;;;2603474;54;20026;31
2022/09/28 09:03:07;;;;;;;3.70;1.50;;;19.00;99.90;;;;;;2604823;54;20054;31
2022/09/28 09:06:11;;;;;;;2.00;1.50;;;19.00;99.90;;;;;;2605758;54;20026;31
2022/09/28 09:09:05;;;;;;;2.10;1.50;;;18.80;99.90;;;;;;2606306;46;20030;31
2022/09/28 09:11:49;;;;;;;5.10;3.33;;;18.50;99.90;;;;;;2604711;54;20972;-79
2022/09/28 09:14:39;;;;;;;3.05;1.45;;;18.90;99.90;;;;;;2624354;46;20889;31
2022/09/28 09:17:23;;;;;;;1.83;1.25;;;19.00;99.90;;;;;;2608538;54;20023;31
2022/09/28 09:20:28;;;;;;;4.13;1.40;;;18.80;99.90;;;;;;2606751;54;20025;31
2022/09/28 09:23:17;;;;;;;1.65;1.55;;;18.10;99.90;;;;;;2603476;54;20849;31
2022/09/28 09:25:53;;;;;;;2.05;1.10;;;17.60;99.90;;;;;;2603514;54;20113;31
2022/09/28 09:28:40;;;;;;;3.13;1.15;;;17.40;99.90;;;;;;2603528;54;20089;31
2022/09/28 09:31:20;;;;;;;1.75;1.20;;;17.20;99.90;;;;;;2603487;54;20848;31
2022/09/28 09:34:16;;;;;;;2.63;1.20;;;17.00;99.90;;;;;;2603631;54;20023;31
2022/09/28 09:37:07;;;;;;;1.50;1.10;;;16.50;99.90;;;;;;2603223;54;20032;31
2022/09/28 09:40:19;;;;;;;1.35;0.93;;;16.10;99.90;;;;;;2603450;54;20022;31
2022/09/28 09:43:10;;;;;;;4.97;2.83;;;16.10;99.90;;;;;;2603743;54;20914;31
2022/09/28 09:45:54;;;;;;;1.43;0.90;;;16.20;99.90;;;;;;2603743;54;20841;31
2022/09/28 09:48:48;;;;;;;2.25;1.15;;;16.20;99.90;;;;;;2603240;54;20250;31
2022/09/28 09:51:30;;;;;;;2.30;0.80;;;16.10;99.90;;;;;;2603483;54;20153;31
2022/09/28 09:54:07;;;;;;;2.78;0.90;;;16.00;99.90;;;;;;2622075;46;20886;31
2022/09/28 09:56:43;;;;;;;2.63;1.30;;;15.90;99.90;;;;;;2603283;54;20033;31
2022/09/28 09:59:26;;;;;;;2.70;1.05;;;15.80;99.90;;;;;;2622211;46;20805;31
2022/09/28 10:02:14;;;;;;;2.75;1.10;;;15.70;99.90;;;;;;2603455;54;20027;31
2022/09/28 10:07:41;;;;;;;1.45;0.55;;;15.80;99.90;;;;;;2603291;54;20169;31
2022/09/28 10:10:20;;;;;;;1.90;0.57;;;15.80;99.90;;;;;;2602299;54;20086;31
2022/09/28 10:12:57;;;;;;;3.65;1.23;;;15.80;99.90;;;;;;2603361;54;20081;31
2022/09/28 10:15:35;;;;;;;2.65;0.80;;;15.70;99.90;;;;;;2622130;46;20908;31
2022/09/28 10:18:18;;;;;;;2.35;0.57;;;15.70;99.90;;;;;;2603412;54;20027;31
2022/09/28 10:21:14;;;;;;;2.15;0.80;;;15.80;99.90;;;;;;2603307;54;20921;31
2022/09/28 10:24:06;;;;;;;2.15;1.02;;;15.50;99.90;;;;;;2603221;54;20924;31
2022/09/28 10:26:44;;;;;;;5.72;0.80;;;15.50;99.90;;;;;;2621929;46;20105;31
2022/09/28 10:29:28;;;;;;;4.60;1.00;;;15.50;99.90;;;;;;2602972;54;20902;31
2022/09/28 10:32:05;;;;;;;3.72;0.95;;;15.30;99.90;;;;;;2603343;54;20774;31
2022/09/28 10:34:42;;;;;;;2.00;0.70;;;15.20;99.90;;;;;;2621919;46;21355;31
2022/09/28 10:37:26;;;;;;;3.30;0.80;;;15.30;99.90;;;;;;2603251;54;20898;31
2022/09/28 10:40:34;;;;;;;1.20;0.70;;;15.10;99.90;;;;;;2622062;46;20830;31
2022/09/28 10:43:17;;;;;;;1.70;0.50;;;15.10;99.90;;;;;;2603214;54;20047;31
2022/09/28 10:46:02;;;;;;;1.63;0.35;;;15.00;99.90;;;;;;2603149;54;20140;31
2022/09/28 10:48:48;;;;;;;2.92;0.82;;;15.00;99.90;;;;;;2603001;54;20942;31
2022/09/28 10:51:23;;;;;;;1.40;0.30;;;15.00;99.90;;;;;;2603466;54;20049;31
2022/09/28 10:54:05;;;;;;;1.40;0.40;;;14.90;99.90;;;;;;2603346;54;20085;31
2022/09/28 10:56:59;;;;;;;1.27;0.38;;;14.80;99.90;;;;;;2602983;54;20054;31
2022/09/28 10:59:46;;;;;;;4.65;0.60;;;14.60;99.90;;;;;;2603348;54;20033;31
2022/09/28 11:02:31;;;;;;;5.30;0.52;;;14.50;99.90;;;;;;2603147;54;20053;31
2022/09/28 11:05:17;;;;;;;2.55;0.50;;;14.20;99.90;;;;;;2603192;54;20026;31
2022/09/28 11:07:54;;;;;;;2.95;0.60;;;14.00;99.90;;;;;;2603218;54;20899;31
2022/09/28 11:10:36;;;;;;;2.70;0.55;;;13.60;99.90;;;;;;2621677;46;20022;31
2022/09/28 11:13:21;;;;;;;1.10;0.50;;;13.30;99.90;;;;;;2603169;54;20049;31
2022/09/28 11:16:06;;;;;;;1.48;0.40;;;13.20;99.90;;;;;;2603240;54;20046;31
2022/09/28 11:18:44;;;;;;;1.13;0.35;;;13.00;99.90;;;;;;2603079;54;20909;31
2022/09/28 11:21:23;;;;;;;1.10;0.50;;;12.70;99.90;;;;;;2603213;54;20876;31
2022/09/28 11:24:21;;;;;;;1.77;0.50;;;12.60;99.90;;;;;;2603125;54;20871;31
2022/09/28 11:26:58;;;;;;;1.48;0.30;;;12.50;99.90;;;;;;2603154;54;20906;31
2022/09/28 11:29:44;;;;;;;3.13;0.50;;;12.40;99.90;;;;;;2602936;54;20022;31
2022/09/28 11:32:45;;;;;;;2.55;0.50;;;12.30;99.90;;;;;;2603047;54;20022;31
2022/09/28 11:35:26;;;;;;;2.43;0.40;;;12.30;99.90;;;;;;2603127;54;20022;31
2022/09/28 11:38:10;;;;;;;2.70;0.50;;;12.30;99.90;;;;;;2603196;54;21116;31
2022/09/28 11:41:14;;;;;;;4.55;1.95;;;12.20;99.90;;;;;;2602938;54;20048;31
2022/09/28 11:43:56;;;;;;;;;;;12.20;99.90;;;;;;2603213;54;20049;31
2022/09/28 11:46:39;;;;;;;1.80;0.63;;;12.20;99.90;;;;;;2621339;47;19990;31
2022/09/28 11:49:28;;;;;;;1.70;0.52;;;12.10;99.90;;;;;;2602906;54;20948;31
2022/09/28 11:52:12;;;;;;;2.03;0.60;;;12.10;99.90;;;;;;2602885;54;20875;31
2022/09/28 11:54:52;;;;;;;3.50;0.70;;;12.10;99.90;;;;;;2602941;54;20848;31
2022/09/28 11:57:30;;;;;;;2.22;0.60;;;12.10;99.90;;;;;;2602940;54;20030;31
2022/09/28 12:00:08;;;;;;;4.10;0.80;;;12.10;99.90;;;;;;2621987;47;20042;31
2022/09/28 12:02:53;;;;;;;2.75;0.75;;;12.10;99.90;;;;;;2604104;54;20980;31
2022/09/28 12:05:32;;;;;;;2.33;0.97;;;12.00;99.90;;;;;;2603557;54;20026;31
2022/09/28 12:08:11;;;;;;;3.40;1.15;;;12.00;99.90;;;;;;2603719;54;20043;31
2022/09/28 12:11:08;;;;;;;3.90;1.17;;;12.00;99.90;;;;;;2603822;54;20084;31
2022/09/28 12:14:03;;;;;;;4.63;1.08;;;12.00;99.90;;;;;;2604022;54;20273;31
2022/09/28 12:16:42;;;;;;;4.15;1.00;;;11.90;99.90;;;;;;2603603;54;20026;31
2022/09/28 12:19:42;;;;;;;3.45;0.80;;;11.90;99.90;;;;;;2603829;54;20791;31
2022/09/28 12:22:19;;;;;;;2.05;1.10;;;12.00;99.90;;;;;;2603881;54;20939;31
2022/09/28 12:24:56;;;;;;;3.30;1.25;;;11.90;99.90;;;;;;2603838;54;20034;31
2022/09/28 12:27:37;;;;;;;3.65;1.23;;;11.90;99.90;;;;;;2603938;54;20118;31
2022/09/28 12:30:18;;;;;;;3.80;1.20;;;11.90;99.90;;;;;;2603827;54;20872;31
2022/09/28 12:32:55;;;;;;;4.38;0.77;;;12.00;99.90;;;;;;2603622;54;20038;31
2022/09/28 12:35:38;;;;;;;3.90;0.90;;;12.00;99.90;;;;;;2603506;54;20992;31
2022/09/28 12:38:22;;;;;;;2.05;0.90;;;12.00;99.90;;;;;;2603766;54;20026;31
2022/09/28 12:40:56;;;;;;;2.05;0.80;;;12.10;99.90;;;;;;2603524;54;20034;31
2022/09/28 12:43:40;;;;;;;2.55;1.00;;;12.10;99.90;;;;;;2603502;54;21667;31
2022/09/28 12:46:28;;;;;;;3.38;1.13;;;12.00;99.90;;;;;;2603797;54;20022;31
2022/09/28 12:49:20;;;;;;;3.20;0.88;;;12.00;99.90;;;;;;2622333;46;20799;31
2022/09/28 12:52:14;;;;;;;5.55;0.90;;;12.00;99.90;;;;;;2621944;46;20050;31
2022/09/28 12:55:18;;;;;;;2.25;1.05;;;12.00;99.90;;;;;;2603736;54;19942;31
2022/09/28 12:58:05;;;;;;;2.55;1.10;;;12.10;99.90;;;;;;2603475;54;20847;31
2022/09/28 13:00:42;;;;;;;4.10;1.20;;;12.10;99.90;;;;;;2603800;54;20072;31
2022/09/28 13:03:36;;;;;;;1.80;0.85;;;12.10;99.90;;;;;;2603735;54;20841;31
2022/09/28 13:06:28;;;;;;;1.50;0.95;;;12.10;99.90;;;;;;2603699;54;20828;31
2022/09/28 13:09:11;;;;;;;1.70;0.87;;;12.00;99.90;;;;;;2603484;54;20863;31
2022/09/28 13:11:54;;;;;;;22.65;8.73;;;12.20;99.90;;;;;;2622013;46;20810;31
2022/09/28 13:15:07;;;;;;;4.57;2.05;;;12.30;99.90;;;;;;2603377;54;20027;31
2022/09/28 13:17:47;;;;;;;6.22;2.78;;;12.30;99.90;;;;;;2603344;54;19961;31
2022/09/28 13:20:36;;;;;;;4.95;2.65;;;12.30;99.90;;;;;;2603707;54;20037;31
2022/09/28 13:23:16;;;;;;;3.50;2.17;;;12.40;99.90;;;;;;2603371;54;20045;31
2022/09/28 13:25:56;;;;;;;4.40;1.90;;;12.30;99.90;;;;;;2622041;46;20053;31
2022/09/28 13:28:33;;;;;;;8.27;2.88;;;12.30;99.90;;;;;;2603464;54;20046;31
2022/09/28 13:31:05;;;;;;;3.95;2.45;;;12.40;99.90;;;;;;2603277;54;20085;31
2022/09/28 13:33:41;;;;;;;5.10;2.78;;;12.40;99.90;;;;;;2604634;46;20026;31
2022/09/28 13:36:39;;;;;;;3.85;1.65;;;12.30;99.90;;;;;;2603315;46;19949;31
2022/09/28 13:39:36;;;;;;;2.05;1.27;;;12.30;99.90;;;;;;2603472;54;20931;31
2022/09/28 13:42:11;;;;;;;2.87;1.27;;;12.20;99.90;;;;;;2603208;54;20037;31
2022/09/28 13:45:03;;;;;;;2.20;1.17;;;12.10;99.90;;;;;;2603229;54;19941;31
2022/09/28 13:47:46;;;;;;;1.65;0.80;;;12.10;99.90;;;;;;2603507;54;20023;31
2022/09/28 13:50:28;;;;;;;3.13;1.48;;;12.00;99.90;;;;;;2603346;54;20022;31
2022/09/28 13:53:06;;;;;;;3.20;1.77;;;11.90;99.90;;;;;;2621784;46;20034;31
2022/09/28 13:55:47;;;;;;;6.20;3.72;;;11.80;99.90;;;;;;2603192;54;20069;31
2022/09/28 13:58:25;;;;;;;4.10;2.70;;;11.80;99.90;;;;;;2603224;54;20858;31
2022/09/28 14:01:04;;;;;;;5.78;2.30;;;11.80;99.90;;;;;;2621812;46;20973;31
2022/09/28 14:03:56;;;;;;;33.13;17.97;;;11.80;99.90;;;;;;2603391;54;20888;31
2022/09/28 14:06:31;;;;;;;33.75;21.40;;;11.70;99.90;;;;;;2603433;54;20050;31
2022/09/28 14:09:25;;;;;;;22.67;14.57;;;11.70;99.90;;;;;;2603291;54;20051;31
2022/09/28 14:12:01;;;;;;;7.35;4.70;;;11.60;99.90;;;;;;2603521;54;20018;31
2022/09/28 14:14:51;;;;;;;8.23;3.57;;;11.60;99.90;;;;;;2608637;46;20930;31
2022/09/28 14:20:02;;;;;;;4.50;2.75;;;11.60;99.90;;;;;;2603419;54;20034;31
2022/09/28 14:22:38;;;;;;;10.50;3.25;;;11.60;99.90;;;;;;2622108;46;20038;31
2022/09/28 14:25:16;;;;;;;;;;;11.50;99.90;;;;;;2616490;46;20845;31
2022/09/28 14:28:05;;;;;;;4.30;2.40;;;11.50;99.90;;;;;;2602178;54;20013;31